Time;durP1;ratioP1;P1;durP2;ratioP2;P2;SDS_P1;SDS_P2;PMS_P1;PMS_P2;Temp;Humidity;BMP_temperature;BMP_pressure;BME280_temperature;BME280_humidity;BME280_pressure;Samples;Min_cycle;Max_cycle;Signal;HPM_P1;HPM_P2
2022/11/30 00:00:20;;;;;;;56.95;24.25;;;5.20;74.60;;;;;;4127405;28;20037;-84
2022/11/30 00:02:39;;;;;;;52.45;23.80;;;5.30;74.80;;;;;;4141081;28;20117;-83
2022/11/30 00:04:59;;;;;;;59.35;23.90;;;5.30;74.60;;;;;;4125913;28;20049;-84
2022/11/30 00:07:18;;;;;;;49.10;21.55;;;5.20;74.60;;;;;;4139453;28;20099;-85
2022/11/30 00:09:37;;;;;;;53.75;23.77;;;5.20;74.60;;;;;;4134902;28;20107;-85
2022/11/30 00:11:56;;;;;;;50.63;23.02;;;5.20;74.60;;;;;;4125974;28;20038;-84
2022/11/30 00:14:15;;;;;;;50.72;23.30;;;5.30;74.70;;;;;;4123765;28;20134;-84
2022/11/30 00:16:34;;;;;;;53.90;24.13;;;5.20;74.50;;;;;;4135974;28;20041;-85
2022/11/30 00:18:54;;;;;;;54.92;23.92;;;5.30;74.60;;;;;;4139020;28;20559;-84
2022/11/30 00:21:14;;;;;;;58.30;24.83;;;5.30;74.50;;;;;;4122875;28;20158;-84
2022/11/30 00:23:38;;;;;;;52.78;23.95;;;5.40;74.50;;;;;;4136684;28;20830;-84
2022/11/30 00:26:06;;;;;;;59.88;24.40;;;5.20;74.30;;;;;;4139487;28;20458;-84
2022/11/30 00:28:26;;;;;;;60.83;26.27;;;5.30;74.30;;;;;;4141172;28;20113;-84
2022/11/30 00:30:45;;;;;;;61.42;26.88;;;5.10;74.00;;;;;;4141497;28;20065;-83
2022/11/30 00:33:04;;;;;;;59.58;26.98;;;5.20;73.60;;;;;;4145135;28;20076;-84
2022/11/30 00:35:23;;;;;;;61.20;27.17;;;5.20;73.60;;;;;;4141103;28;20045;-84
2022/11/30 00:37:42;;;;;;;52.05;24.75;;;5.10;73.80;;;;;;4143490;28;20072;-84
2022/11/30 00:40:02;;;;;;;58.65;26.17;;;5.10;73.70;;;;;;4126909;28;20187;-84
2022/11/30 00:42:21;;;;;;;54.35;25.55;;;5.10;73.80;;;;;;4135038;28;20046;-84
2022/11/30 00:44:41;;;;;;;56.45;25.95;;;5.00;73.70;;;;;;4136837;28;20049;-84
2022/11/30 00:47:00;;;;;;;59.83;27.20;;;5.20;73.90;;;;;;4143759;28;20414;-85
2022/11/30 00:49:19;;;;;;;62.38;26.27;;;5.00;73.70;;;;;;4142672;28;20391;-84
2022/11/30 00:51:39;;;;;;;63.33;27.35;;;5.00;73.60;;;;;;4141317;28;20603;-84
2022/11/30 00:53:58;;;;;;;57.58;26.33;;;5.00;73.50;;;;;;4133388;28;20060;-85
2022/11/30 00:56:17;;;;;;;57.35;26.20;;;5.00;73.50;;;;;;4144375;28;20646;-84
2022/11/30 00:58:36;;;;;;;63.50;26.48;;;5.00;73.40;;;;;;4145135;28;20446;-84
2022/11/30 01:00:55;;;;;;;59.72;27.27;;;5.00;73.40;;;;;;4147307;28;20049;-85
2022/11/30 01:03:14;;;;;;;62.72;27.83;;;5.00;73.20;;;;;;4132070;28;20049;-84
2022/11/30 01:05:34;;;;;;;61.03;25.85;;;4.90;73.20;;;;;;4134101;28;20118;-84
2022/11/30 01:07:54;;;;;;;61.97;25.70;;;5.10;73.40;;;;;;4132463;28;20652;-85
2022/11/30 01:10:13;;;;;;;62.65;25.50;;;5.00;73.40;;;;;;4130321;28;21175;-84
2022/11/30 01:12:32;;;;;;;65.60;26.60;;;5.10;73.50;;;;;;4143111;28;20084;-83
2022/11/30 01:14:51;;;;;;;67.93;27.48;;;5.00;73.70;;;;;;4146698;28;20041;-84
2022/11/30 01:17:10;;;;;;;61.50;28.65;;;5.10;73.90;;;;;;4134581;28;20109;-84
2022/11/30 01:19:29;;;;;;;61.25;27.98;;;5.10;74.60;;;;;;4130770;28;20057;-84
2022/11/30 01:21:49;;;;;;;63.97;29.23;;;5.10;74.90;;;;;;4142685;28;20048;-82
2022/11/30 01:24:09;;;;;;;72.80;29.70;;;5.10;75.00;;;;;;4143758;28;20121;-83
2022/11/30 01:26:28;;;;;;;66.88;29.52;;;5.10;75.60;;;;;;4146809;28;20033;-83
2022/11/30 01:28:53;;;;;;;72.85;32.75;;;5.10;75.60;;;;;;4133031;28;20045;-83
2022/11/30 01:31:13;;;;;;;72.00;31.38;;;5.10;75.60;;;;;;4146813;28;20045;-84
2022/11/30 01:33:33;;;;;;;72.80;30.98;;;5.10;75.90;;;;;;4144906;28;20041;-83
2022/11/30 01:36:05;;;;;;;78.70;32.90;;;5.10;75.90;;;;;;4143836;28;20697;-83
2022/11/30 01:38:24;;;;;;;79.75;32.30;;;5.00;76.00;;;;;;4144089;28;20041;-83
2022/11/30 01:40:49;;;;;;;83.28;32.88;;;5.00;76.20;;;;;;4140709;28;20069;-83
2022/11/30 01:43:10;;;;;;;80.38;31.60;;;5.00;76.30;;;;;;4143562;28;20407;-84
2022/11/30 01:45:30;;;;;;;70.85;29.85;;;5.00;76.30;;;;;;4144075;28;20557;-84
2022/11/30 01:47:55;;;;;;;78.55;31.00;;;5.00;76.30;;;;;;4143266;28;20064;-84
2022/11/30 01:50:31;;;;;;;76.47;32.45;;;5.10;76.40;;;;;;4140009;28;20463;-84
2022/11/30 01:52:54;;;;;;;67.93;32.20;;;5.00;76.20;;;;;;4145040;28;20068;-84
2022/11/30 01:55:20;;;;;;;74.60;30.60;;;5.00;76.20;;;;;;4126952;28;20038;-83
2022/11/30 01:57:54;;;;;;;85.22;32.90;;;5.00;76.20;;;;;;4143880;28;20095;-84
2022/11/30 02:00:14;;;;;;;72.10;30.17;;;4.90;76.20;;;;;;4143816;28;20048;-83
2022/11/30 02:02:57;;;;;;;81.30;32.65;;;5.10;76.40;;;;;;4143767;28;20554;-84
2022/11/30 02:05:17;;;;;;;76.20;31.52;;;5.00;76.30;;;;;;4145553;28;20036;-84
2022/11/30 02:07:37;;;;;;;67.32;29.50;;;5.00;76.30;;;;;;4144660;28;20109;-84
2022/11/30 02:09:56;;;;;;;70.93;30.27;;;5.00;76.30;;;;;;4133088;28;20069;-84
2022/11/30 02:12:30;;;;;;;64.88;29.02;;;5.00;76.30;;;;;;4134712;28;20051;-82
2022/11/30 02:14:55;;;;;;;70.50;28.67;;;5.00;76.20;;;;;;4141563;28;20092;-83
2022/11/30 02:17:42;;;;;;;64.43;28.30;;;5.00;76.10;;;;;;4131979;28;20570;-84
2022/11/30 02:20:07;;;;;;;62.58;29.00;;;4.90;75.70;;;;;;4148082;28;20099;-84
2022/11/30 02:22:54;;;;;;;63.38;27.50;;;5.00;75.90;;;;;;4148342;28;20037;-84
2022/11/30 02:25:23;;;;;;;81.60;29.52;;;5.00;75.80;;;;;;4135992;28;20049;-83
2022/11/30 02:27:45;;;;;;;64.15;29.58;;;5.00;75.70;;;;;;4145983;28;20078;-82
2022/11/30 02:30:09;;;;;;;68.93;30.02;;;5.00;75.70;;;;;;4147613;28;20038;-85
2022/11/30 02:32:34;;;;;;;73.05;29.17;;;5.10;75.80;;;;;;4145855;28;20044;-84
2022/11/30 02:34:57;;;;;;;68.88;28.98;;;5.00;75.70;;;;;;4149054;28;20057;-84
2022/11/30 02:37:18;;;;;;;63.90;28.75;;;5.00;75.60;;;;;;4131107;28;20097;-84
2022/11/30 02:39:37;;;;;;;70.10;28.88;;;5.10;75.70;;;;;;4149290;28;20045;-83
2022/11/30 02:41:56;;;;;;;67.55;28.23;;;5.00;75.50;;;;;;4153881;28;20072;-85
2022/11/30 02:44:16;;;;;;;72.97;30.48;;;5.10;75.70;;;;;;4145527;28;20061;-84
2022/11/30 02:46:45;;;;;;;71.22;30.42;;;5.00;75.70;;;;;;4143323;28;20049;-85
2022/11/30 02:49:07;;;;;;;65.07;27.27;;;5.00;75.80;;;;;;4144186;28;20045;-84
2022/11/30 02:51:30;;;;;;;61.70;28.10;;;5.10;75.90;;;;;;4143974;28;20053;-84
2022/11/30 02:53:49;;;;;;;70.40;31.13;;;5.00;75.70;;;;;;4144718;28;20143;-84
2022/11/30 02:56:09;;;;;;;64.55;28.88;;;5.00;75.80;;;;;;4146673;28;20072;-83
2022/11/30 02:58:28;;;;;;;66.32;29.75;;;5.00;75.70;;;;;;4146198;28;20040;-83
2022/11/30 03:00:48;;;;;;;70.45;30.55;;;5.00;75.70;;;;;;4147740;28;20049;-84
2022/11/30 03:03:07;;;;;;;69.38;29.83;;;4.90;75.80;;;;;;4141093;28;20514;-84
2022/11/30 03:05:26;;;;;;;76.28;31.65;;;4.90;75.90;;;;;;4147688;28;20451;-83
2022/11/30 03:07:45;;;;;;;62.83;29.02;;;5.00;75.90;;;;;;4144854;28;20036;-84
2022/11/30 03:10:05;;;;;;;76.65;31.40;;;5.00;75.80;;;;;;4144477;28;20064;-83
2022/11/30 03:12:24;;;;;;;63.13;29.52;;;5.00;75.70;;;;;;4142993;28;20095;-84
2022/11/30 03:14:44;;;;;;;77.43;31.80;;;4.90;75.70;;;;;;4145718;28;20110;-83
2022/11/30 03:17:04;;;;;;;72.03;29.40;;;4.90;75.70;;;;;;4144065;28;20337;-84
2022/11/30 03:19:23;;;;;;;68.90;30.25;;;5.00;76.00;;;;;;4148330;28;20072;-83
2022/11/30 03:21:43;;;;;;;70.05;32.22;;;4.90;75.90;;;;;;4146445;28;20618;-83
2022/11/30 03:24:02;;;;;;;75.03;32.72;;;5.00;75.90;;;;;;4148967;28;20467;-83
2022/11/30 03:26:21;;;;;;;70.97;31.83;;;4.90;75.90;;;;;;4146548;28;20107;-83
2022/11/30 03:28:40;;;;;;;74.50;31.63;;;5.00;76.10;;;;;;4143578;28;20041;-83
2022/11/30 03:31:00;;;;;;;73.80;31.08;;;4.90;76.10;;;;;;4145891;28;20076;-83
2022/11/30 03:33:19;;;;;;;69.47;30.05;;;5.00;76.30;;;;;;4142952;28;20161;-83
2022/11/30 03:35:38;;;;;;;74.75;31.65;;;5.00;76.30;;;;;;4141563;28;20546;-83
2022/11/30 03:37:57;;;;;;;73.18;33.08;;;4.90;76.20;;;;;;4143643;28;20049;-84
2022/11/30 03:40:16;;;;;;;76.78;32.95;;;4.90;76.20;;;;;;4141690;28;20068;-82
2022/11/30 03:42:36;;;;;;;77.28;32.03;;;5.00;76.30;;;;;;4142085;28;20122;-81
2022/11/30 03:44:55;;;;;;;68.80;29.55;;;4.80;76.40;;;;;;4147247;28;20052;-84
2022/11/30 03:47:15;;;;;;;79.32;32.75;;;4.80;76.50;;;;;;4146010;28;20064;-84
2022/11/30 03:49:34;;;;;;;69.10;31.50;;;4.80;76.50;;;;;;4133588;28;20551;-84
2022/11/30 03:51:53;;;;;;;70.47;30.38;;;4.80;76.30;;;;;;4145538;28;20041;-84
2022/11/30 03:54:12;;;;;;;68.30;30.55;;;4.80;76.20;;;;;;4149803;28;20029;-82
2022/11/30 03:56:31;;;;;;;68.40;28.48;;;4.80;76.20;;;;;;4144620;28;20036;-83
2022/11/30 03:58:51;;;;;;;69.38;29.38;;;4.80;76.30;;;;;;4131334;28;20033;-83
2022/11/30 04:01:11;;;;;;;76.07;32.50;;;4.70;76.10;;;;;;4144575;28;20069;-82
2022/11/30 04:03:31;;;;;;;68.50;30.85;;;4.90;76.20;;;;;;4143668;28;20076;-83
2022/11/30 04:05:50;;;;;;;71.45;29.88;;;4.80;75.90;;;;;;4145473;28;20045;-83
2022/11/30 04:08:09;;;;;;;69.38;30.42;;;4.80;75.90;;;;;;4133623;28;20034;-84
2022/11/30 04:10:28;;;;;;;70.38;30.48;;;4.70;75.90;;;;;;4145197;28;20095;-83
2022/11/30 04:12:47;;;;;;;72.35;30.83;;;4.70;75.90;;;;;;4144960;28;20057;-84
2022/11/30 04:15:07;;;;;;;70.35;31.73;;;4.70;75.80;;;;;;4142142;28;20247;-83
2022/11/30 04:17:26;;;;;;;68.63;30.05;;;4.70;75.70;;;;;;4146821;28;20036;-83
2022/11/30 04:19:45;;;;;;;67.22;30.30;;;4.70;75.70;;;;;;4145066;28;20040;-83
2022/11/30 04:22:05;;;;;;;65.63;28.70;;;4.60;75.50;;;;;;4144168;28;20566;-83
2022/11/30 04:24:24;;;;;;;58.95;28.40;;;4.70;75.70;;;;;;4146394;28;20044;-84
2022/11/30 04:26:44;;;;;;;59.88;28.00;;;4.70;75.60;;;;;;4135239;28;20463;-84
2022/11/30 04:29:04;;;;;;;62.13;27.92;;;4.80;75.60;;;;;;4149421;28;20044;-83
2022/11/30 04:31:23;;;;;;;63.03;28.55;;;4.70;75.70;;;;;;4147689;28;20044;-83
2022/11/30 04:33:42;;;;;;;64.05;28.98;;;4.70;75.30;;;;;;4139422;28;20041;-83
2022/11/30 04:36:03;;;;;;;62.45;29.15;;;4.60;75.40;;;;;;4146353;28;20044;-84
2022/11/30 04:38:23;;;;;;;66.20;28.00;;;4.60;75.30;;;;;;4134239;28;20082;-83
2022/11/30 04:40:43;;;;;;;61.70;27.88;;;4.60;75.30;;;;;;4150794;28;20048;-84
2022/11/30 04:43:03;;;;;;;59.05;26.30;;;4.60;75.40;;;;;;4137522;28;20072;-84
2022/11/30 04:45:22;;;;;;;60.78;27.85;;;4.60;75.30;;;;;;4131544;28;20041;-83
2022/11/30 04:47:41;;;;;;;58.22;27.67;;;4.60;75.00;;;;;;4160056;28;20081;-83
2022/11/30 04:50:01;;;;;;;69.00;28.88;;;4.80;75.20;;;;;;4148156;28;20140;-83
2022/11/30 04:52:20;;;;;;;65.18;29.65;;;4.70;75.10;;;;;;4148363;28;20037;-83
2022/11/30 04:54:39;;;;;;;56.83;25.27;;;4.80;75.10;;;;;;4149722;28;20061;-84
2022/11/30 04:56:59;;;;;;;59.45;27.77;;;4.60;75.10;;;;;;4149058;28;20052;-83
2022/11/30 04:59:18;;;;;;;62.45;27.85;;;4.60;75.00;;;;;;4147046;28;20042;-83
2022/11/30 05:01:37;;;;;;;59.22;27.50;;;4.50;75.00;;;;;;4135728;28;20049;-83
2022/11/30 05:03:58;;;;;;;57.78;26.42;;;4.50;75.10;;;;;;4143297;28;20408;-83
2022/11/30 05:06:17;;;;;;;62.05;26.40;;;4.50;75.30;;;;;;4144127;28;20044;-84
2022/11/30 05:08:37;;;;;;;54.97;25.42;;;4.50;75.10;;;;;;4131961;28;20118;-84
2022/11/30 05:10:56;;;;;;;57.85;26.80;;;4.60;75.20;;;;;;4133414;28;20065;-84
2022/11/30 05:13:15;;;;;;;60.28;28.13;;;4.50;74.90;;;;;;4145144;28;20096;-83
2022/11/30 05:15:34;;;;;;;56.33;26.30;;;4.60;75.20;;;;;;4145825;28;20041;-82
2022/11/30 05:17:57;;;;;;;62.60;27.08;;;4.50;75.20;;;;;;4142924;28;20113;-84
2022/11/30 05:20:17;;;;;;;57.03;26.17;;;4.50;75.10;;;;;;4132597;28;20122;-84
2022/11/30 05:22:36;;;;;;;58.55;26.65;;;4.40;75.10;;;;;;4144111;28;20049;-84
2022/11/30 05:24:55;;;;;;;61.65;27.02;;;4.50;75.20;;;;;;4146540;28;20100;-84
2022/11/30 05:27:14;;;;;;;56.60;27.40;;;4.40;75.00;;;;;;4132821;28;20100;-83
2022/11/30 05:29:36;;;;;;;65.65;28.45;;;4.50;75.00;;;;;;4139420;28;20049;-84
2022/11/30 05:31:55;;;;;;;58.90;27.48;;;4.50;75.10;;;;;;4143056;28;20045;-83
2022/11/30 05:34:15;;;;;;;65.22;28.02;;;4.40;75.00;;;;;;4143509;28;20460;-83
2022/11/30 05:36:34;;;;;;;60.38;28.55;;;4.50;75.30;;;;;;4144314;28;20037;-84
2022/11/30 05:38:53;;;;;;;63.95;28.65;;;4.30;75.10;;;;;;4140257;28;20041;-83
2022/11/30 05:41:13;;;;;;;57.33;26.92;;;4.50;75.30;;;;;;4127722;28;20086;-83
2022/11/30 05:43:32;;;;;;;64.03;27.77;;;4.30;75.30;;;;;;4144425;28;20053;-84
2022/11/30 05:45:51;;;;;;;60.80;27.70;;;4.50;75.30;;;;;;4144451;28;20475;-82
2022/11/30 05:48:10;;;;;;;63.97;27.02;;;4.30;75.40;;;;;;4143509;28;20087;-82
2022/11/30 05:50:29;;;;;;;61.67;29.83;;;4.40;75.40;;;;;;4139893;28;20131;-82
2022/11/30 05:52:50;;;;;;;62.03;28.10;;;4.40;75.40;;;;;;4143628;28;20044;-84
2022/11/30 05:55:10;;;;;;;62.42;28.75;;;4.40;75.70;;;;;;4144377;28;20561;-82
2022/11/30 05:57:29;;;;;;;59.90;27.23;;;4.40;75.60;;;;;;4145650;28;20033;-83
2022/11/30 05:59:48;;;;;;;60.70;27.00;;;4.50;75.70;;;;;;4134271;28;20042;-84
2022/11/30 06:02:07;;;;;;;59.92;26.13;;;4.50;75.50;;;;;;4146306;28;20103;-83
2022/11/30 06:04:26;;;;;;;54.10;25.92;;;4.50;75.30;;;;;;4133294;28;20034;-83
2022/11/30 06:06:46;;;;;;;62.97;28.70;;;4.60;75.30;;;;;;4146929;28;20048;-84
2022/11/30 06:09:05;;;;;;;61.35;26.35;;;4.50;75.80;;;;;;4141095;28;20049;-83
2022/11/30 06:11:24;;;;;;;58.03;26.98;;;4.50;75.20;;;;;;4143486;28;20045;-83
2022/11/30 06:13:43;;;;;;;61.88;26.95;;;4.60;75.10;;;;;;4148451;28;20040;-84
2022/11/30 06:16:04;;;;;;;55.67;26.98;;;4.60;75.00;;;;;;4147641;28;20037;-83
2022/11/30 06:18:22;;;;;;;58.45;26.65;;;4.60;75.00;;;;;;4147603;28;20036;-84
2022/11/30 06:20:41;;;;;;;59.63;27.08;;;4.50;74.80;;;;;;4146251;28;20040;-83
2022/11/30 06:23:00;;;;;;;60.78;27.13;;;4.50;74.80;;;;;;4145355;28;20032;-84
2022/11/30 06:25:20;;;;;;;58.92;26.20;;;4.50;75.10;;;;;;4133599;28;20097;-83
2022/11/30 06:27:39;;;;;;;60.33;28.77;;;4.40;75.20;;;;;;4150244;28;20029;-82
2022/11/30 06:29:59;;;;;;;59.88;28.25;;;4.50;75.60;;;;;;4144193;28;20073;-83
2022/11/30 06:32:18;;;;;;;58.33;27.92;;;4.50;75.60;;;;;;4135507;28;20029;-83
2022/11/30 06:34:37;;;;;;;57.17;26.90;;;4.50;75.40;;;;;;4132567;28;20065;-84
2022/11/30 06:36:56;;;;;;;53.88;26.52;;;4.50;75.20;;;;;;4143141;28;20078;-84
2022/11/30 06:38:57;;;;;;;56.50;28.10;;;4.50;75.20;;;;;;4129096;28;20065;-83
2022/11/30 06:41:04;;;;;;;67.15;27.60;;;4.50;74.90;;;;;;4145624;28;20022;-82
2022/11/30 06:43:05;;;;;;;59.75;26.73;;;4.50;74.60;;;;;;4134053;28;20018;-83
2022/11/30 06:45:06;;;;;;;59.03;26.38;;;4.50;74.60;;;;;;4151139;28;20022;-83
2022/11/30 06:47:07;;;;;;;59.20;27.67;;;4.50;74.30;;;;;;4147922;28;20037;-83
2022/11/30 06:49:07;;;;;;;55.60;26.40;;;4.60;74.20;;;;;;4144490;28;21657;-83
2022/11/30 06:51:09;;;;;;;64.95;29.35;;;4.50;75.10;;;;;;4135712;28;20076;-84
2022/11/30 06:53:10;;;;;;;61.58;26.73;;;4.50;74.70;;;;;;4148715;28;20026;-84
2022/11/30 06:55:10;;;;;;;64.25;27.15;;;4.50;74.80;;;;;;4133470;28;20048;-84
2022/11/30 06:57:11;;;;;;;59.38;26.80;;;4.50;74.80;;;;;;4147157;28;20029;-84
2022/11/30 06:59:12;;;;;;;59.10;27.73;;;4.60;74.70;;;;;;4148068;28;20526;-82
2022/11/30 07:01:14;;;;;;;63.83;28.48;;;4.50;74.60;;;;;;4141098;28;20022;-83
2022/11/30 07:03:14;;;;;;;65.35;29.48;;;4.50;74.80;;;;;;4146832;28;20034;-81
2022/11/30 07:05:15;;;;;;;59.97;27.00;;;4.40;75.00;;;;;;4150018;28;20370;-84
2022/11/30 07:07:15;;;;;;;64.40;27.10;;;4.50;75.10;;;;;;4132750;28;20027;-81
2022/11/30 07:09:16;;;;;;;57.67;25.63;;;4.50;75.00;;;;;;4146410;28;20392;-82
2022/11/30 07:11:17;;;;;;;58.78;27.58;;;4.50;74.90;;;;;;4145332;28;20034;-84
2022/11/30 07:13:18;;;;;;;59.78;26.92;;;4.40;74.90;;;;;;4144355;28;20042;-83
2022/11/30 07:15:19;;;;;;;64.35;28.67;;;4.50;74.80;;;;;;4148583;28;20053;-82
2022/11/30 07:17:19;;;;;;;59.15;26.77;;;4.50;74.70;;;;;;4148736;28;20057;-83
2022/11/30 07:19:20;;;;;;;63.08;28.30;;;4.50;75.10;;;;;;4130934;28;20125;-82
2022/11/30 07:21:20;;;;;;;60.33;27.13;;;4.50;74.90;;;;;;4144867;28;20034;-83
2022/11/30 07:27:59;;;;;;;58.85;26.45;;;4.50;74.90;;;;;;4127727;28;21003;-81
2022/11/30 07:30:00;;;;;;;58.92;25.83;;;4.60;74.50;;;;;;4144497;28;20044;-84
2022/11/30 07:32:01;;;;;;;61.92;26.45;;;4.60;74.40;;;;;;4143107;28;20027;-84
2022/11/30 07:34:06;;;;;;;54.65;26.27;;;4.60;73.90;;;;;;4129442;28;20046;-82
2022/11/30 07:36:08;;;;;;;54.60;25.35;;;4.60;73.80;;;;;;4124998;28;20030;-83
2022/11/30 07:38:09;;;;;;;57.00;26.23;;;4.60;73.80;;;;;;4141672;28;20082;-81
2022/11/30 07:40:09;;;;;;;62.60;27.25;;;4.50;73.80;;;;;;4129755;28;20034;-83
2022/11/30 07:42:10;;;;;;;53.35;24.60;;;4.50;74.20;;;;;;4118528;28;20114;-84
2022/11/30 07:44:11;;;;;;;60.25;26.77;;;4.60;74.40;;;;;;4115492;28;20031;-83
2022/11/30 07:46:13;;;;;;;53.90;26.42;;;4.60;74.30;;;;;;4147280;28;20500;-83
2022/11/30 07:48:13;;;;;;;55.40;26.55;;;4.60;74.40;;;;;;4144480;28;20034;-84
2022/11/30 07:50:14;;;;;;;66.70;28.40;;;4.70;74.70;;;;;;4145432;28;20120;-84
2022/11/30 07:52:15;;;;;;;62.20;26.95;;;4.60;74.90;;;;;;4130531;28;20038;-83
2022/11/30 07:54:16;;;;;;;59.95;27.73;;;4.60;75.10;;;;;;4150037;28;20053;-83
2022/11/30 07:56:18;;;;;;;61.17;27.95;;;4.70;75.20;;;;;;4144534;28;20041;-83
2022/11/30 07:58:18;;;;;;;59.20;27.50;;;4.60;75.20;;;;;;4126288;28;20509;-82
2022/11/30 08:00:19;;;;;;;63.25;27.13;;;4.60;75.10;;;;;;4145820;28;20041;-83
2022/11/30 08:02:19;;;;;;;62.92;27.75;;;4.60;75.20;;;;;;4129144;28;20027;-82
2022/11/30 08:04:20;;;;;;;55.88;27.00;;;4.70;75.20;;;;;;4144279;28;20037;-83
2022/11/30 08:06:23;;;;;;;63.92;28.48;;;4.70;75.20;;;;;;4128170;28;20027;-84
2022/11/30 08:08:27;;;;;;;;;;;4.80;75.20;;;;;;4125792;28;20018;-83
2022/11/30 08:10:27;;;;;;;60.77;26.93;;;4.70;75.20;;;;;;4140543;28;19917;-84
2022/11/30 08:12:28;;;;;;;62.47;27.48;;;4.80;75.10;;;;;;4145196;28;20304;-83
2022/11/30 08:14:28;;;;;;;55.83;26.73;;;4.80;74.90;;;;;;4130262;28;20038;-84
2022/11/30 08:16:33;;;;;;;56.78;26.92;;;4.70;75.00;;;;;;4122771;28;20540;-84
2022/11/30 08:18:34;;;;;;;55.92;26.38;;;4.70;75.00;;;;;;4140313;28;20031;-84
2022/11/30 08:20:35;;;;;;;55.55;25.90;;;4.80;75.10;;;;;;4146379;28;20084;-84
2022/11/30 08:22:35;;;;;;;62.35;28.10;;;4.80;75.10;;;;;;4125384;28;20031;-83
2022/11/30 08:24:36;;;;;;;61.97;27.50;;;4.80;75.00;;;;;;4147979;28;20056;-82
2022/11/30 08:27:06;;;;;;;57.65;26.13;;;4.80;75.10;;;;;;4142448;28;20022;-84
2022/11/30 08:29:10;;;;;;;60.67;27.58;;;4.70;75.40;;;;;;4083778;29;20051;-84
2022/11/30 08:31:31;;;;;;;59.10;27.00;;;4.80;75.50;;;;;;4078982;29;20071;-83
2022/11/30 08:33:33;;;;;;;58.80;28.42;;;4.90;75.30;;;;;;4061251;29;20043;-81
2022/11/30 08:35:36;;;;;;;62.08;27.60;;;4.90;75.40;;;;;;4058807;29;20392;-83
2022/11/30 08:37:37;;;;;;;58.08;26.83;;;4.80;75.40;;;;;;4064515;29;20067;-82
2022/11/30 08:39:38;;;;;;;59.65;27.42;;;4.90;75.50;;;;;;4080743;29;20473;-84
2022/11/30 08:41:39;;;;;;;64.20;26.60;;;4.90;75.30;;;;;;4053068;29;20033;-83
2022/11/30 08:43:41;;;;;;;56.15;25.70;;;4.90;75.30;;;;;;4068932;29;20434;-83
2022/11/30 08:45:42;;;;;;;52.00;24.83;;;4.90;75.00;;;;;;4075734;29;20623;-83
2022/11/30 08:47:42;;;;;;;57.95;25.20;;;5.00;75.10;;;;;;4060478;29;20068;-82
2022/11/30 08:49:43;;;;;;;58.75;25.42;;;5.10;74.90;;;;;;4077003;29;20028;-83
2022/11/30 08:51:43;;;;;;;54.75;25.55;;;5.00;74.60;;;;;;4078631;29;20498;-83
2022/11/30 08:53:45;;;;;;;62.25;26.92;;;5.10;74.50;;;;;;4076277;29;20040;-84
2022/11/30 08:55:57;;;;;;;64.03;29.10;;;4.90;74.10;;;;;;4076943;29;20040;-82
2022/11/30 08:57:58;;;;;;;57.65;25.85;;;5.00;74.10;;;;;;4078920;29;20398;-84
2022/11/30 08:59:58;;;;;;;56.35;26.23;;;5.00;74.10;;;;;;4079548;29;20044;-83
2022/11/30 09:01:59;;;;;;;57.78;26.30;;;5.00;74.10;;;;;;4077477;29;20807;-84
2022/11/30 09:04:00;;;;;;;59.30;25.95;;;5.00;74.00;;;;;;4077951;29;20043;-83
2022/11/30 09:06:11;;;;;;;55.00;25.55;;;5.00;73.80;;;;;;4106798;28;20069;-83
2022/11/30 09:08:12;;;;;;;56.33;25.33;;;5.10;73.60;;;;;;4131267;28;20034;-84
2022/11/30 09:10:13;;;;;;;55.92;25.60;;;5.00;73.20;;;;;;4127483;28;20033;-84
2022/11/30 09:12:14;;;;;;;52.85;25.17;;;5.00;72.70;;;;;;4129876;28;20034;-84
2022/11/30 09:14:15;;;;;;;59.13;25.35;;;5.00;72.40;;;;;;4131940;28;21423;-83
2022/11/30 09:16:17;;;;;;;55.75;24.70;;;5.00;72.60;;;;;;4130968;28;20029;-83
2022/11/30 09:18:18;;;;;;;58.65;26.05;;;5.00;72.60;;;;;;4144026;28;20601;-84
2022/11/30 09:20:19;;;;;;;52.63;24.98;;;5.10;72.70;;;;;;4143179;28;20030;-83
2022/11/30 09:22:19;;;;;;;54.63;25.52;;;5.00;72.90;;;;;;4141031;28;20602;-82
2022/11/30 09:24:20;;;;;;;59.35;25.85;;;5.10;72.60;;;;;;4142682;28;20042;-83
2022/11/30 09:26:24;;;;;;;55.75;25.83;;;5.00;72.30;;;;;;4143068;28;20527;-83
2022/11/30 09:28:25;;;;;;;59.10;25.33;;;5.00;72.60;;;;;;4125741;28;20037;-83
2022/11/30 09:30:26;;;;;;;63.42;27.75;;;5.10;72.70;;;;;;4124250;28;20030;-83
2022/11/30 09:32:28;;;;;;;55.10;25.98;;;5.10;72.70;;;;;;4142933;28;20451;-82
2022/11/30 09:34:28;;;;;;;61.33;26.20;;;5.10;72.80;;;;;;4141376;28;20022;-84
2022/11/30 09:36:29;;;;;;;61.45;27.85;;;5.10;72.80;;;;;;4129287;28;20025;-84
2022/11/30 09:38:30;;;;;;;55.95;25.63;;;5.30;73.00;;;;;;4128448;28;20031;-83
2022/11/30 09:40:33;;;;;;;64.05;26.38;;;5.10;72.70;;;;;;4148877;28;20562;-82
2022/11/30 09:42:37;;;;;;;;;;;5.20;72.80;;;;;;4147051;28;20113;-84
2022/11/30 09:45:09;;;;;;;55.35;25.80;;;5.10;72.90;;;;;;4143794;28;19917;-84
2022/11/30 09:47:50;;;;;;;54.45;25.30;;;5.10;72.00;;;;;;4107653;28;20043;-84
2022/11/30 09:49:51;;;;;;;55.00;25.75;;;5.10;72.00;;;;;;4131394;28;20023;-82
2022/11/30 09:51:55;;;;;;;59.15;26.65;;;5.00;72.10;;;;;;4141735;28;20105;-83
2022/11/30 09:54:05;;;;;;;58.05;25.88;;;5.00;72.30;;;;;;4141436;28;20072;-84
2022/11/30 09:56:28;;;;;;;65.38;27.50;;;5.10;72.50;;;;;;4125460;28;20022;-82
2022/11/30 09:58:43;;;;;;;57.80;24.88;;;5.10;72.40;;;;;;4122244;28;20592;-83
2022/11/30 10:00:44;;;;;;;68.28;29.80;;;5.20;72.70;;;;;;4127264;28;20037;-82
2022/11/30 10:02:45;;;;;;;57.40;26.40;;;5.20;72.70;;;;;;4145113;28;20037;-82
2022/11/30 10:04:46;;;;;;;61.70;27.38;;;5.30;72.80;;;;;;4142209;28;20022;-83
2022/11/30 10:07:12;;;;;;;63.35;26.10;;;5.20;72.80;;;;;;4141706;28;20030;-82
2022/11/30 10:09:12;;;;;;;59.75;26.75;;;5.20;72.70;;;;;;4128285;28;20042;-83
2022/11/30 10:11:41;;;;;;;62.83;27.25;;;5.40;72.90;;;;;;4142411;28;20096;-83
2022/11/30 10:13:58;;;;;;;56.60;25.58;;;5.30;72.80;;;;;;4129649;28;20456;-82
2022/11/30 10:16:15;;;;;;;56.45;27.58;;;5.20;72.20;;;;;;4140734;28;20732;-83
2022/11/30 10:18:28;;;;;;;62.03;28.05;;;5.20;71.80;;;;;;4143743;28;20121;-83
2022/11/30 10:20:48;;;;;;;57.47;24.80;;;5.30;71.80;;;;;;4112666;28;20026;-83
2022/11/30 10:23:06;;;;;;;60.85;25.48;;;5.20;72.00;;;;;;4143357;28;20036;-82
2022/11/30 10:25:22;;;;;;;61.80;28.55;;;5.30;72.10;;;;;;4124513;28;20525;-83
2022/11/30 10:27:34;;;;;;;57.67;27.20;;;5.30;71.80;;;;;;4128203;28;20065;-83
2022/11/30 10:29:39;;;;;;;55.53;25.33;;;5.20;71.50;;;;;;4124228;28;20054;-83
2022/11/30 10:31:42;;;;;;;61.67;25.83;;;5.20;71.50;;;;;;4126040;28;20133;-82
2022/11/30 10:33:51;;;;;;;59.78;26.35;;;5.20;71.40;;;;;;4142115;28;20052;-83
2022/11/30 10:36:08;;;;;;;59.15;25.70;;;5.20;71.60;;;;;;4138562;28;20120;-83
2022/11/30 10:38:27;;;;;;;59.35;26.77;;;5.10;71.40;;;;;;4142407;28;20040;-84
2022/11/30 10:40:36;;;;;;;59.15;26.70;;;5.20;71.60;;;;;;4126755;28;20105;-84
2022/11/30 10:42:41;;;;;;;60.72;26.52;;;5.20;71.80;;;;;;4127384;28;20066;-83
2022/11/30 10:44:48;;;;;;;58.58;26.08;;;5.20;71.80;;;;;;4113430;28;20059;-83
2022/11/30 10:46:59;;;;;;;55.88;24.55;;;5.30;71.80;;;;;;4141198;28;20040;-83
2022/11/30 10:49:10;;;;;;;61.45;27.13;;;5.20;71.80;;;;;;4112078;28;20038;-84
2022/11/30 10:51:11;;;;;;;53.08;24.42;;;5.20;71.90;;;;;;4124608;28;20037;-83
2022/11/30 10:53:12;;;;;;;54.75;24.55;;;5.20;72.00;;;;;;4138114;28;20037;-83
2022/11/30 10:55:22;;;;;;;57.95;26.23;;;5.30;72.00;;;;;;4140984;28;21599;-83
2022/11/30 10:57:29;;;;;;;53.47;25.63;;;5.30;71.80;;;;;;4146709;28;20037;-83
2022/11/30 10:59:43;;;;;;;56.53;25.60;;;5.30;71.80;;;;;;4145019;28;20082;-83
2022/11/30 11:01:44;;;;;;;59.83;26.23;;;5.30;71.60;;;;;;4143219;28;20045;-82
2022/11/30 11:03:45;;;;;;;54.35;25.23;;;5.40;71.60;;;;;;4142222;28;20113;-83
2022/11/30 11:05:46;;;;;;;49.40;23.65;;;5.30;71.50;;;;;;4116802;28;20137;-84
2022/11/30 11:07:57;;;;;;;58.08;26.50;;;5.40;71.60;;;;;;4146033;28;20087;-84
2022/11/30 11:10:03;;;;;;;60.47;27.10;;;5.40;71.40;;;;;;4144273;28;20034;-82
2022/11/30 11:12:17;;;;;;;52.25;23.73;;;5.40;71.50;;;;;;4143467;28;20041;-84
2022/11/30 11:14:21;;;;;;;56.88;26.10;;;5.40;71.10;;;;;;4127742;28;20023;-84
2022/11/30 11:16:23;;;;;;;54.47;24.27;;;5.40;71.10;;;;;;4126036;28;20027;-82
2022/11/30 11:18:30;;;;;;;63.95;26.15;;;5.40;71.20;;;;;;4127233;28;20033;-84
2022/11/30 11:20:37;;;;;;;52.97;24.02;;;5.40;71.00;;;;;;4142682;28;20030;-84
2022/11/30 11:22:38;;;;;;;55.25;25.08;;;5.50;71.30;;;;;;4126629;28;20687;-82
2022/11/30 11:24:38;;;;;;;54.83;26.27;;;5.40;70.80;;;;;;4114614;28;20822;-84
2022/11/30 11:26:51;;;;;;;58.60;24.83;;;5.40;70.70;;;;;;4147310;28;20399;-83
2022/11/30 11:28:55;;;;;;;61.65;26.77;;;5.50;71.60;;;;;;4146768;28;20036;-83
2022/11/30 11:30:56;;;;;;;59.25;26.55;;;5.50;71.60;;;;;;4130598;28;20035;-82